createdAt,value
2018-04-26T06:52:05.860Z,12.10
2018-04-26T06:54:33.329Z,12.00
2018-04-26T06:57:00.836Z,12.00
2018-04-26T06:59:28.311Z,12.00
2018-04-26T07:01:55.804Z,12.00
2018-04-26T07:04:23.303Z,11.90
2018-04-26T07:06:50.790Z,11.80
2018-04-26T07:09:18.255Z,11.80
2018-04-26T07:11:45.720Z,11.90
2018-04-26T07:14:13.196Z,11.80
2018-04-26T07:16:40.663Z,11.90
2018-04-26T07:19:08.916Z,11.80
2018-04-26T07:21:36.388Z,11.80
2018-04-26T07:24:03.880Z,11.80
2018-04-26T07:26:31.345Z,11.60
2018-04-26T07:28:58.844Z,11.70
2018-04-26T07:31:26.376Z,11.70
2018-04-26T07:33:53.873Z,11.80
2018-04-26T07:36:21.353Z,12.00
2018-04-26T07:38:49.585Z,12.10
2018-04-26T07:41:17.069Z,12.00
2018-04-26T07:43:44.570Z,12.20
2018-04-26T07:46:12.092Z,12.40
2018-04-26T07:48:39.559Z,12.40
2018-04-26T07:51:07.803Z,12.40
2018-04-26T07:53:35.276Z,12.40
2018-04-26T07:56:02.750Z,12.40
2018-04-26T07:58:31.003Z,12.60
2018-04-26T08:00:58.468Z,12.60
2018-04-26T08:03:25.936Z,12.70
2018-04-26T08:05:54.173Z,12.50
2018-04-26T08:08:21.651Z,12.40
2018-04-26T08:10:49.115Z,12.60
2018-04-26T08:13:16.605Z,12.60
2018-04-26T08:15:44.067Z,12.60
2018-04-26T08:18:11.540Z,12.80
2018-04-26T08:20:39.023Z,13.00
2018-04-26T08:23:06.492Z,13.00
2018-04-26T08:25:33.981Z,12.90
2018-04-26T08:28:02.221Z,13.00
2018-04-26T08:30:30.741Z,13.00
2018-04-26T08:32:58.988Z,13.10
2018-04-26T08:35:26.517Z,13.10
2018-04-26T08:37:54.029Z,13.20
2018-04-26T08:40:22.265Z,13.60
2018-04-26T08:42:49.756Z,13.50
2018-04-26T08:45:17.236Z,13.60
2018-04-26T08:47:45.497Z,13.60
2018-04-26T08:50:13.738Z,13.70
2018-04-26T08:52:41.229Z,13.70
2018-04-26T08:55:09.502Z,14.10
2018-04-26T08:57:38.495Z,14.40
2018-04-26T09:00:06.764Z,14.50
2018-04-26T09:02:34.248Z,14.40
2018-04-26T09:05:02.493Z,14.60
2018-04-26T09:07:29.960Z,14.60
2018-04-26T09:09:58.213Z,15.00
2018-04-26T09:12:25.676Z,15.00
2018-04-26T09:14:53.173Z,14.90
2018-04-26T09:17:21.426Z,14.80
2018-04-26T09:19:48.903Z,14.80
2018-04-26T09:22:17.152Z,14.60
2018-04-26T09:24:44.692Z,14.60
2018-04-26T09:27:12.176Z,14.50
2018-04-26T09:29:39.640Z,14.30
2018-04-26T09:32:07.883Z,14.20
2018-04-26T09:34:35.351Z,14.20
2018-04-26T09:37:02.849Z,14.10
2018-04-26T09:39:31.068Z,14.10
2018-04-26T09:41:58.531Z,14.00
2018-04-26T09:44:26.027Z,13.70
2018-04-26T09:46:55.009Z,13.70
2018-04-26T09:49:22.488Z,13.70
2018-04-26T09:51:50.736Z,13.30
2018-04-26T09:54:18.264Z,13.30
2018-04-26T09:56:45.725Z,13.40
2018-04-26T09:59:13.212Z,13.70
2018-04-26T10:01:40.719Z,14.00
2018-04-26T10:04:14.950Z,14.30
2018-04-26T10:06:48.055Z,14.30
2018-04-26T10:09:15.556Z,14.30
2018-04-26T10:11:43.799Z,14.00
2018-04-26T10:14:11.271Z,14.00
2018-04-26T10:16:38.752Z,14.10
2018-04-26T10:19:07.009Z,14.10
2018-04-26T10:21:34.479Z,14.00
2018-04-26T10:24:01.956Z,14.20
2018-04-26T10:26:30.201Z,14.20
2018-04-26T10:28:57.676Z,14.20
2018-04-26T10:31:25.927Z,14.30
2018-04-26T10:33:53.412Z,14.30
2018-04-26T10:36:21.667Z,14.40
2018-04-26T10:38:49.157Z,14.40
2018-04-26T10:41:17.483Z,14.10
2018-04-26T10:43:44.960Z,14.10
2018-04-26T10:46:12.437Z,14.20
2018-04-26T10:48:40.696Z,14.10
2018-04-26T10:51:08.187Z,14.10
2018-04-26T10:53:36.428Z,14.10
2018-04-26T10:56:03.888Z,14.10
2018-04-26T10:58:31.367Z,14.00
2018-04-26T11:00:59.619Z,14.10
2018-04-26T11:03:27.096Z,14.10
2018-04-26T11:05:55.384Z,14.70
2018-04-26T11:08:23.612Z,14.90
2018-04-26T11:10:51.113Z,14.90
2018-04-26T11:13:19.367Z,15.20
2018-04-26T11:15:46.861Z,15.10
2018-04-26T11:18:15.092Z,15.30
2018-04-26T11:20:42.575Z,15.30
2018-04-26T11:23:11.572Z,15.10
2018-04-26T11:25:39.891Z,15.00
2018-04-26T11:28:07.404Z,14.90
2018-04-26T11:30:35.639Z,14.80
2018-04-26T11:33:03.140Z,14.80
2018-04-26T11:35:31.383Z,15.20
2018-04-26T11:37:58.920Z,15.20
2018-04-26T11:40:26.392Z,15.10
2018-04-26T11:42:53.891Z,15.20
2018-04-26T11:45:22.142Z,15.40
2018-04-26T11:47:49.607Z,15.40
2018-04-26T11:50:17.100Z,15.50
2018-04-26T11:52:45.331Z,15.60
2018-04-26T11:55:12.834Z,15.60
2018-04-26T11:57:41.069Z,15.50
2018-04-26T12:00:08.552Z,15.50
2018-04-26T12:02:36.059Z,15.90
2018-04-26T12:05:04.260Z,16.50
2018-04-26T12:07:31.756Z,16.40
2018-04-26T12:09:59.984Z,16.90
2018-04-26T12:12:27.468Z,16.90
2018-04-26T12:14:54.944Z,17.10
2018-04-26T12:17:23.204Z,17.10
2018-04-26T12:19:50.673Z,17.10
2018-04-26T12:22:18.144Z,17.20
2018-04-26T12:24:46.403Z,17.60
2018-04-26T12:27:13.880Z,17.60
2018-04-26T12:29:41.395Z,17.70
2018-04-26T12:32:08.871Z,17.50
2018-04-26T12:34:37.125Z,17.10
2018-04-26T12:37:04.585Z,17.10
2018-04-26T12:39:32.098Z,16.90
2018-04-26T12:42:00.387Z,17.40
2018-04-26T12:44:27.817Z,17.40
2018-04-26T12:46:56.080Z,17.80
2018-04-26T12:49:23.548Z,17.80
2018-04-26T12:51:51.036Z,17.80
2018-04-26T12:54:18.520Z,17.50
2018-04-26T12:56:45.999Z,17.40
2018-04-26T12:59:13.472Z,17.60
2018-04-26T13:01:40.959Z,17.60
2018-04-26T13:04:09.204Z,18.30
2018-04-26T13:06:36.668Z,18.30
2018-04-26T13:09:04.148Z,18.40
2018-04-26T13:11:32.386Z,18.80
2018-04-26T13:13:59.870Z,18.70
2018-04-26T13:16:28.117Z,19.40
2018-04-26T13:18:55.687Z,19.30
2018-04-26T13:21:23.216Z,19.40
2018-04-26T13:23:51.415Z,19.80
2018-04-26T13:26:18.884Z,19.70
2018-04-26T13:28:46.409Z,19.80
2018-04-26T13:31:13.907Z,20.40
2018-04-26T13:33:42.159Z,19.80
2018-04-26T13:36:09.644Z,19.80
2018-04-26T13:38:37.123Z,19.40
2018-04-26T13:41:05.364Z,19.50
2018-04-26T13:43:32.874Z,19.40
2018-04-26T13:46:00.357Z,19.50
2018-04-26T13:48:28.207Z,19.80
2018-04-26T13:50:55.768Z,19.90
2018-04-26T13:53:23.257Z,19.90
2018-04-26T13:55:50.735Z,19.40
2018-04-26T13:58:18.307Z,19.20
2018-04-26T14:00:45.860Z,18.90
2018-04-26T14:03:13.323Z,19.00
2018-04-26T14:05:41.556Z,19.40
2018-04-26T14:08:09.238Z,19.40
2018-04-26T14:10:36.732Z,20.10
2018-04-26T14:13:04.959Z,20.90
2018-04-26T14:15:32.441Z,20.90
2018-04-26T14:17:59.909Z,20.80
2018-04-26T14:20:27.396Z,20.10
2018-04-26T14:22:54.890Z,19.60
2018-04-26T14:25:22.372Z,18.80
2018-04-26T14:27:49.839Z,18.00
2018-04-26T14:30:17.338Z,17.30
2018-04-26T14:32:44.825Z,17.50
2018-04-26T14:35:12.279Z,17.60
2018-04-26T14:37:39.857Z,17.30
2018-04-26T14:40:07.295Z,17.00
2018-04-26T14:42:34.773Z,17.10
2018-04-26T14:45:02.256Z,17.40
2018-04-26T14:47:30.508Z,17.10
2018-04-26T14:49:57.984Z,17.10
2018-04-26T14:52:25.459Z,17.10
2018-04-26T14:54:53.701Z,17.00
2018-04-26T14:57:21.381Z,17.00
2018-04-26T14:59:48.896Z,16.80
2018-04-26T15:02:16.364Z,16.60
2018-04-26T15:04:43.851Z,16.70
2018-04-26T15:07:12.095Z,16.60
2018-04-26T15:09:39.596Z,16.60
2018-04-26T15:12:07.840Z,16.50
2018-04-26T15:14:35.332Z,16.40
2018-04-26T15:17:03.646Z,16.30
2018-04-26T15:19:31.111Z,16.20
2018-04-26T15:21:58.755Z,16.20
2018-04-26T15:24:26.253Z,16.10
2018-04-26T15:26:53.897Z,15.80
2018-04-26T15:29:21.366Z,15.40
2018-04-26T15:31:48.880Z,15.00
2018-04-26T15:34:17.133Z,14.40
2018-04-26T15:36:46.263Z,14.40
2018-04-26T15:39:13.747Z,14.40
2018-04-26T15:41:41.221Z,14.30
2018-04-26T15:44:08.744Z,14.30
2018-04-26T15:46:36.346Z,14.00
2018-04-26T15:49:03.855Z,14.20
2018-04-26T15:51:32.157Z,14.40
2018-04-26T15:54:11.501Z,14.40
2018-04-26T15:56:53.870Z,14.50
2018-04-26T15:59:34.180Z,14.80
2018-04-26T16:05:34.311Z,14.80
2018-04-26T16:08:19.565Z,14.60
2018-04-26T16:11:04.676Z,14.70
2018-04-26T16:13:49.898Z,14.70
2018-04-26T16:16:35.259Z,14.90
2018-04-26T16:19:20.263Z,14.80
2018-04-26T16:22:05.651Z,14.70
2018-04-26T16:24:50.999Z,14.50
2018-04-26T16:27:37.024Z,14.40
2018-04-26T16:30:16.676Z,14.40
2018-04-26T16:33:01.835Z,14.30
2018-04-26T16:35:41.421Z,14.00
2018-04-26T16:38:21.014Z,13.90
2018-04-26T16:40:48.520Z,14.20
2018-04-26T16:43:16.788Z,14.50
2018-04-26T16:45:44.292Z,14.40
2018-04-26T16:48:11.787Z,14.60
2018-04-26T16:50:39.356Z,14.50
2018-04-26T16:53:06.860Z,14.60
2018-04-26T16:55:35.099Z,14.50
2018-04-26T16:58:02.609Z,14.50
2018-04-26T17:00:30.867Z,14.20
2018-04-26T17:02:59.107Z,14.30
2018-04-26T17:05:26.596Z,14.30
2018-04-26T17:07:54.884Z,14.30
2018-04-26T17:10:22.327Z,14.20
2018-04-26T17:12:49.791Z,14.40
2018-04-26T17:15:18.068Z,14.30
2018-04-26T17:17:45.567Z,14.30
2018-04-26T17:20:13.055Z,14.40
2018-04-26T17:22:40.604Z,14.50
2018-04-26T17:25:08.099Z,14.50
2018-04-26T17:27:36.368Z,14.40
2018-04-26T17:30:03.884Z,14.40
2018-04-26T17:32:31.366Z,14.50
2018-04-26T17:34:58.824Z,14.50
2018-04-26T17:37:26.344Z,14.50
2018-04-26T17:39:53.810Z,14.40
2018-04-26T17:42:21.324Z,14.30
2018-04-26T17:44:48.806Z,14.40
2018-04-26T17:47:16.323Z,14.40
2018-04-26T17:49:45.495Z,14.00
2018-04-26T17:52:13.002Z,14.00
2018-04-26T17:54:41.257Z,13.70
2018-04-26T17:57:08.735Z,13.70
2018-04-26T17:59:36.988Z,13.70
2018-04-26T18:02:04.524Z,13.70
2018-04-26T18:04:32.034Z,13.70
2018-04-26T18:07:00.265Z,13.60
2018-04-26T18:09:27.823Z,13.60
2018-04-26T18:11:56.063Z,13.50
2018-04-26T18:14:24.311Z,13.50
2018-04-26T18:16:51.813Z,13.40
2018-04-26T18:19:19.291Z,13.40
2018-04-26T18:21:46.808Z,13.40
2018-04-26T18:24:15.077Z,13.40
2018-04-26T18:26:43.393Z,13.40
2018-04-26T18:29:10.931Z,13.40
2018-04-26T18:31:38.451Z,13.40
2018-04-26T18:34:07.430Z,13.40
2018-04-26T18:36:35.305Z,13.40
2018-04-26T18:39:02.768Z,13.40
2018-04-26T18:41:30.238Z,13.40
2018-04-26T18:43:57.813Z,13.40
2018-04-26T18:46:26.060Z,13.50
2018-04-26T18:48:54.732Z,13.40
2018-04-26T18:51:22.291Z,13.50
2018-04-26T18:53:49.782Z,13.60
2018-04-26T18:56:18.072Z,13.60
2018-04-26T18:58:46.372Z,13.70
2018-04-26T19:01:14.035Z,13.60
2018-04-26T19:03:41.549Z,13.60
2018-04-26T19:06:10.017Z,13.60
2018-04-26T19:08:37.542Z,13.50
2018-04-26T19:11:05.030Z,13.50
2018-04-26T19:13:32.526Z,13.50
2018-04-26T19:16:00.845Z,13.50
2018-04-26T19:18:29.414Z,13.40
2018-04-26T19:20:57.418Z,13.40
2018-04-26T19:23:26.184Z,13.30
2018-04-26T19:25:53.708Z,13.30
2018-04-26T19:28:22.345Z,13.30
2018-04-26T19:30:51.128Z,13.30
2018-04-26T19:33:19.492Z,13.20
2018-04-26T19:35:46.960Z,13.20
2018-04-26T19:38:15.000Z,13.20
2018-04-26T19:40:43.298Z,13.20
2018-04-26T19:43:11.903Z,13.20
2018-04-26T19:45:39.529Z,13.20
2018-04-26T19:48:08.755Z,13.10
2018-04-26T19:50:37.343Z,13.10
2018-04-26T19:53:04.841Z,13.00
2018-04-26T19:55:34.248Z,13.10
2018-04-26T19:58:01.772Z,13.10
2018-04-26T20:00:29.263Z,13.10
2018-04-26T20:02:57.630Z,13.10
2018-04-26T20:05:25.197Z,13.10
2018-04-26T20:07:54.256Z,13.00
2018-04-26T20:10:21.997Z,13.00
2018-04-26T20:12:49.565Z,13.00
2018-04-26T20:15:17.067Z,12.90
2018-04-26T20:17:44.542Z,12.90
2018-04-26T20:20:12.133Z,12.90
2018-04-26T20:22:39.625Z,12.90
2018-04-26T20:25:07.120Z,12.80
2018-04-26T20:27:35.388Z,12.80
2018-04-26T20:30:02.944Z,12.70
2018-04-26T20:32:30.490Z,12.80
2018-04-26T20:34:57.962Z,12.70
2018-04-26T20:37:25.463Z,12.70
2018-04-26T20:39:52.949Z,12.60
2018-04-26T20:42:20.440Z,12.70
2018-04-26T20:44:48.053Z,12.70
2018-04-26T20:47:15.627Z,12.70
2018-04-26T20:49:43.116Z,12.60
2018-04-26T20:52:10.591Z,12.60
2018-04-26T20:54:38.115Z,12.50
2018-04-26T20:57:05.633Z,12.40
2018-04-26T20:59:33.123Z,12.40
2018-04-26T21:02:00.606Z,12.40
2018-04-26T21:04:28.096Z,12.30
2018-04-26T21:06:56.352Z,12.30
2018-04-26T21:09:23.894Z,12.30
2018-04-26T21:11:51.380Z,12.20
2018-04-26T21:14:19.631Z,12.20
2018-04-26T21:16:47.112Z,12.20
2018-04-26T21:19:15.383Z,12.00
2018-04-26T21:21:42.864Z,12.00
2018-04-26T21:24:11.144Z,12.00
2018-04-26T21:26:38.631Z,11.90
2018-04-26T21:29:06.140Z,12.00
2018-04-26T21:31:33.648Z,12.00
2018-04-26T21:34:01.115Z,12.00
2018-04-26T21:36:28.584Z,11.90
2018-04-26T21:38:56.067Z,11.90
2018-04-26T21:41:23.533Z,11.80
2018-04-26T21:43:51.812Z,11.80
2018-04-26T21:46:20.058Z,11.70
2018-04-26T21:48:47.562Z,11.70
2018-04-26T21:51:21.534Z,11.70
2018-04-26T21:53:54.744Z,11.70
2018-04-26T21:56:27.999Z,11.70
2018-04-26T21:59:01.114Z,11.60
2018-04-26T22:01:34.382Z,11.60
2018-04-26T22:07:07.621Z,11.60
2018-04-26T22:09:35.097Z,11.60
2018-04-26T22:12:02.560Z,11.60
2018-04-26T22:14:30.804Z,11.50
2018-04-26T22:16:58.283Z,11.50
2018-04-26T22:19:25.767Z,11.60
2018-04-26T22:21:53.997Z,11.50
2018-04-26T22:24:21.456Z,11.50
2018-04-26T22:26:48.927Z,11.50
2018-04-26T22:29:16.425Z,11.50
2018-04-26T22:31:43.916Z,11.40
2018-04-26T22:34:11.485Z,11.40
2018-04-26T22:36:38.976Z,11.40
2018-04-26T22:39:07.212Z,11.30
2018-04-26T22:41:34.713Z,11.30
2018-04-26T22:44:02.955Z,11.30
2018-04-26T22:46:30.694Z,11.30
2018-04-26T22:48:58.167Z,11.30
2018-04-26T22:51:25.631Z,11.20
2018-04-26T22:53:53.110Z,11.20
2018-04-26T22:56:20.580Z,11.20
2018-04-26T22:58:48.058Z,11.20
2018-04-26T23:01:16.285Z,11.00
2018-04-26T23:03:43.773Z,11.00
2018-04-26T23:06:11.251Z,11.00
2018-04-26T23:08:38.731Z,11.00
2018-04-26T23:11:06.200Z,11.00
2018-04-26T23:13:33.684Z,10.90
2018-04-26T23:16:01.150Z,10.90
2018-04-26T23:18:28.622Z,10.80
2018-04-26T23:20:56.869Z,10.80
2018-04-26T23:23:24.341Z,10.70
2018-04-26T23:25:51.824Z,10.80
2018-04-26T23:28:20.061Z,10.70
2018-04-26T23:30:47.553Z,10.70
2018-04-26T23:33:15.783Z,10.60
2018-04-26T23:35:43.276Z,10.60
2018-04-26T23:38:11.545Z,10.60
2018-04-26T23:40:39.050Z,10.60
2018-04-26T23:43:06.519Z,10.60
2018-04-26T23:45:33.991Z,10.50
2018-04-26T23:48:01.465Z,10.50
2018-04-26T23:50:28.930Z,10.40
2018-04-26T23:52:56.399Z,10.40
2018-04-26T23:55:23.864Z,10.50
2018-04-26T23:57:52.126Z,10.40
